createdAt,value
2017-07-10T00:00:10.470Z,38.63
2017-07-10T00:02:37.884Z,43.00
2017-07-10T00:05:05.316Z,40.10
2017-07-10T00:07:32.734Z,41.80
2017-07-10T00:10:00.147Z,40.60
2017-07-10T00:12:27.582Z,39.90
2017-07-10T00:14:54.994Z,43.80
2017-07-10T00:17:22.407Z,43.47
2017-07-10T00:19:49.831Z,36.17
2017-07-10T00:22:17.245Z,46.10
2017-07-10T00:24:44.670Z,44.17
2017-07-10T00:27:12.086Z,38.47
2017-07-10T00:29:39.504Z,41.37
2017-07-10T00:32:06.986Z,40.93
2017-07-10T00:34:34.348Z,43.23
2017-07-10T00:37:01.773Z,40.83
2017-07-10T00:39:29.204Z,44.00
2017-07-10T00:41:56.614Z,42.80
2017-07-10T00:44:24.039Z,47.40
2017-07-10T00:46:51.453Z,38.60
2017-07-10T00:49:18.890Z,42.10
2017-07-10T00:51:46.302Z,40.03
2017-07-10T00:54:13.720Z,42.80
2017-07-10T00:56:41.134Z,44.90
2017-07-10T00:59:08.551Z,44.07
2017-07-10T01:01:35.983Z,43.20
2017-07-10T01:04:03.394Z,43.27
2017-07-10T01:06:30.802Z,50.10
2017-07-10T01:08:58.222Z,43.50
2017-07-10T01:11:25.640Z,40.27
2017-07-10T01:13:53.067Z,45.43
2017-07-10T01:16:20.480Z,41.80
2017-07-10T01:18:47.891Z,45.30
2017-07-10T01:21:15.318Z,45.77
2017-07-10T01:23:42.726Z,41.60
2017-07-10T01:26:10.139Z,43.67
2017-07-10T01:28:37.575Z,44.07
2017-07-10T01:31:04.986Z,45.50
2017-07-10T01:33:32.406Z,49.37
2017-07-10T01:35:59.838Z,44.60
2017-07-10T01:38:27.250Z,42.13
2017-07-10T01:40:54.667Z,39.57
2017-07-10T01:43:22.089Z,39.40
2017-07-10T01:45:49.500Z,38.20
2017-07-10T01:48:16.963Z,40.97
2017-07-10T01:50:44.382Z,35.23
2017-07-10T01:53:11.792Z,38.17
2017-07-10T01:55:39.223Z,34.67
2017-07-10T01:58:06.638Z,36.17
2017-07-10T02:00:34.069Z,36.23
2017-07-10T02:03:01.482Z,40.83
2017-07-10T02:05:28.902Z,36.90
2017-07-10T02:07:56.319Z,41.63
2017-07-10T02:10:23.738Z,43.33
2017-07-10T02:12:51.167Z,41.63
2017-07-10T02:15:18.583Z,39.70
2017-07-10T02:17:46.003Z,44.13
2017-07-10T02:20:13.423Z,36.90
2017-07-10T02:22:40.837Z,44.30
2017-07-10T02:25:08.271Z,39.57
2017-07-10T02:27:35.688Z,41.20
2017-07-10T02:30:03.101Z,40.93
2017-07-10T02:32:30.523Z,39.57
2017-07-10T02:34:57.947Z,39.03
2017-07-10T02:37:25.470Z,39.30
2017-07-10T02:39:52.888Z,41.57
2017-07-10T02:42:20.302Z,37.60
2017-07-10T02:44:47.728Z,37.53
2017-07-10T02:47:15.141Z,36.23
2017-07-10T02:49:42.567Z,35.77
2017-07-10T02:52:09.980Z,35.03
2017-07-10T02:54:37.390Z,31.60
2017-07-10T02:57:04.811Z,30.57
2017-07-10T02:59:32.220Z,31.07
2017-07-10T03:01:59.654Z,31.70
2017-07-10T03:04:27.067Z,36.90
2017-07-10T03:06:54.475Z,29.27
2017-07-10T03:09:21.894Z,31.10
2017-07-10T03:11:49.309Z,32.07
2017-07-10T03:14:16.749Z,32.90
2017-07-10T03:16:44.154Z,35.87
2017-07-10T03:19:11.563Z,32.80
2017-07-10T03:21:38.995Z,38.00
2017-07-10T03:24:06.411Z,38.27
2017-07-10T03:26:33.830Z,32.60
2017-07-10T03:29:01.243Z,37.57
2017-07-10T03:31:28.663Z,37.60
2017-07-10T03:33:56.086Z,38.17
2017-07-10T03:36:23.498Z,32.53
2017-07-10T03:38:50.930Z,35.07
2017-07-10T03:41:18.333Z,34.23
2017-07-10T03:43:45.755Z,51.77
2017-07-10T03:46:13.174Z,48.30
2017-07-10T03:48:40.588Z,45.73
2017-07-10T03:51:08.023Z,39.50
2017-07-10T03:53:35.447Z,37.17
2017-07-10T03:56:02.858Z,35.53
2017-07-10T03:58:30.280Z,36.27
2017-07-10T04:00:57.692Z,34.40
2017-07-10T04:03:25.119Z,38.33
2017-07-10T04:05:52.526Z,36.33
2017-07-10T04:08:19.945Z,39.63
2017-07-10T04:10:47.363Z,38.23
2017-07-10T04:13:14.784Z,38.20
2017-07-10T04:15:42.219Z,35.90
2017-07-10T04:18:09.630Z,36.63
2017-07-10T04:20:37.059Z,31.30
2017-07-10T04:23:04.485Z,42.63
2017-07-10T04:25:31.900Z,39.63
2017-07-10T04:27:59.333Z,37.90
2017-07-10T04:30:26.749Z,41.07
2017-07-10T04:32:54.307Z,41.23
2017-07-10T04:35:21.735Z,39.80
2017-07-10T04:37:49.142Z,39.10
2017-07-10T04:40:16.572Z,38.50
2017-07-10T04:42:43.989Z,34.50
2017-07-10T04:45:11.402Z,38.87
2017-07-10T04:47:38.828Z,36.63
2017-07-10T04:50:06.244Z,35.73
2017-07-10T04:52:33.678Z,37.03
2017-07-10T04:55:01.087Z,34.20
2017-07-10T04:57:28.498Z,39.13
2017-07-10T04:59:55.931Z,35.00
2017-07-10T05:02:23.348Z,39.83
2017-07-10T05:04:50.776Z,33.47
2017-07-10T05:07:18.183Z,36.50
2017-07-10T05:09:45.603Z,37.90
2017-07-10T05:12:13.024Z,34.83
2017-07-10T05:14:40.430Z,36.80
2017-07-10T05:17:07.864Z,34.27
2017-07-10T05:19:35.279Z,37.13
2017-07-10T05:22:02.692Z,35.00
2017-07-10T05:24:30.108Z,34.53
2017-07-10T05:26:57.523Z,36.60
2017-07-10T05:29:25.027Z,36.90
2017-07-10T05:31:52.441Z,35.10
2017-07-10T05:34:19.854Z,34.47
2017-07-10T05:36:47.273Z,38.87
2017-07-10T05:39:14.687Z,36.27
2017-07-10T05:41:42.120Z,35.83
2017-07-10T05:44:09.538Z,37.63
2017-07-10T05:46:36.956Z,36.20
2017-07-10T05:49:05.321Z,38.03
2017-07-10T05:51:32.735Z,36.40
2017-07-10T05:54:00.179Z,36.53
2017-07-10T05:56:27.582Z,38.87
2017-07-10T05:58:55.001Z,37.13
2017-07-10T06:01:22.419Z,37.00
2017-07-10T06:03:49.836Z,40.70
2017-07-10T06:06:17.312Z,44.43
2017-07-10T06:08:44.724Z,40.17
2017-07-10T06:11:12.135Z,43.30
2017-07-10T06:13:39.555Z,43.30
2017-07-10T06:16:06.966Z,43.20
2017-07-10T06:18:34.399Z,44.67
2017-07-10T06:21:01.810Z,41.70
2017-07-10T06:23:29.221Z,48.00
2017-07-10T06:25:56.651Z,43.83
2017-07-10T06:28:24.063Z,46.73
2017-07-10T06:30:51.490Z,42.30
2017-07-10T06:33:18.911Z,40.40
2017-07-10T06:35:46.337Z,39.83
2017-07-10T06:38:13.775Z,35.70
2017-07-10T06:40:41.187Z,44.13
2017-07-10T06:43:08.591Z,43.40
2017-07-10T06:45:36.020Z,40.13
2017-07-10T06:48:03.588Z,42.70
2017-07-10T06:50:31.855Z,41.43
2017-07-10T06:52:59.270Z,44.03
2017-07-10T06:55:26.673Z,44.50
2017-07-10T06:57:54.113Z,41.50
2017-07-10T07:00:21.518Z,42.20
2017-07-10T07:02:48.983Z,43.53
2017-07-10T07:05:16.386Z,45.33
2017-07-10T07:07:43.795Z,47.80
2017-07-10T07:10:11.218Z,45.17
2017-07-10T07:12:38.622Z,46.27
2017-07-10T07:15:06.047Z,38.40
2017-07-10T07:17:33.458Z,47.97
2017-07-10T07:20:00.893Z,50.33
2017-07-10T07:22:28.304Z,40.83
2017-07-10T07:24:55.730Z,45.20
2017-07-10T07:27:23.195Z,50.33
2017-07-10T07:29:50.966Z,46.97
2017-07-10T07:32:18.394Z,44.33
2017-07-10T07:34:45.802Z,44.00
2017-07-10T07:37:13.274Z,48.10
2017-07-10T07:39:40.704Z,51.03
2017-07-10T07:42:08.122Z,49.70
2017-07-10T07:44:35.549Z,52.57
2017-07-10T07:47:02.963Z,46.83
2017-07-10T07:49:30.388Z,47.87
2017-07-10T07:51:57.803Z,41.07
2017-07-10T07:54:25.216Z,50.77
2017-07-10T07:56:52.642Z,49.50
2017-07-10T07:59:20.064Z,47.93
2017-07-10T08:01:47.495Z,53.03
2017-07-10T08:04:14.907Z,51.10
2017-07-10T08:06:42.314Z,51.90
2017-07-10T08:09:09.738Z,49.03
2017-07-10T08:11:37.147Z,47.33
2017-07-10T08:14:04.583Z,50.07
2017-07-10T08:16:31.994Z,66.33
2017-07-10T08:18:59.407Z,60.87
2017-07-10T08:21:26.895Z,61.63
2017-07-10T08:23:54.314Z,55.17
2017-07-10T08:26:21.744Z,52.20
2017-07-10T08:28:49.302Z,53.33
2017-07-10T08:31:16.715Z,56.67
2017-07-10T08:33:44.126Z,51.40
2017-07-10T08:36:11.558Z,46.53
2017-07-10T08:38:38.982Z,53.27
2017-07-10T08:41:06.387Z,48.10
2017-07-10T08:43:33.814Z,56.20
2017-07-10T08:46:01.229Z,55.80
2017-07-10T08:48:28.642Z,48.53
2017-07-10T08:50:56.067Z,47.50
2017-07-10T08:53:23.492Z,50.47
2017-07-10T08:55:50.907Z,50.53
2017-07-10T08:58:18.343Z,47.77
2017-07-10T09:00:45.750Z,47.63
2017-07-10T09:03:13.166Z,55.20
2017-07-10T09:05:40.611Z,49.57
2017-07-10T09:08:08.027Z,52.40
2017-07-10T09:10:35.438Z,57.07
2017-07-10T09:13:02.862Z,49.80
2017-07-10T09:15:30.280Z,49.13
2017-07-10T09:17:57.695Z,41.33
2017-07-10T09:20:25.135Z,52.23
2017-07-10T09:22:52.545Z,42.07
2017-07-10T09:25:19.955Z,48.80
2017-07-10T09:27:47.379Z,47.50
2017-07-10T09:30:14.786Z,43.07
2017-07-10T09:32:42.204Z,49.73
2017-07-10T09:35:10.373Z,44.43
2017-07-10T09:37:37.796Z,46.87
2017-07-10T09:40:05.207Z,44.83
2017-07-10T09:42:32.642Z,46.63
2017-07-10T09:45:00.054Z,44.27
2017-07-10T09:47:27.467Z,47.03
2017-07-10T09:49:54.891Z,42.60
2017-07-10T09:52:22.303Z,44.70
2017-07-10T09:54:49.714Z,41.70
2017-07-10T09:57:17.147Z,41.97
2017-07-10T09:59:44.563Z,44.70
2017-07-10T10:02:11.966Z,43.43
2017-07-10T10:04:39.403Z,44.83
2017-07-10T10:07:06.810Z,39.10
2017-07-10T10:09:34.222Z,44.67
2017-07-10T10:12:01.739Z,37.37
2017-07-10T10:14:29.166Z,39.30
2017-07-10T10:16:56.587Z,37.50
2017-07-10T10:19:24.064Z,41.90
2017-07-10T10:21:52.216Z,42.73
2017-07-10T10:24:19.618Z,39.40
2017-07-10T10:26:47.055Z,36.73
2017-07-10T10:29:14.471Z,37.33
2017-07-10T10:31:41.879Z,40.60
2017-07-10T10:34:09.330Z,39.57
2017-07-10T10:36:36.730Z,37.53
2017-07-10T10:39:04.153Z,43.17
2017-07-10T10:41:31.586Z,40.23
2017-07-10T10:43:59.559Z,36.20
2017-07-10T10:46:26.969Z,30.27
2017-07-10T10:48:54.403Z,31.67
2017-07-10T10:51:21.816Z,26.13
2017-07-10T10:53:49.232Z,32.20
2017-07-10T10:56:16.660Z,28.73
2017-07-10T10:58:44.075Z,27.53
2017-07-10T11:01:11.490Z,32.10
2017-07-10T11:03:38.920Z,26.70
2017-07-10T11:06:06.326Z,31.43
2017-07-10T11:08:33.748Z,30.03
2017-07-10T11:11:01.231Z,27.57
2017-07-10T11:13:28.634Z,28.83
2017-07-10T11:15:56.051Z,30.23
2017-07-10T11:18:23.586Z,25.63
2017-07-10T11:20:50.998Z,26.40
2017-07-10T11:23:18.397Z,25.00
2017-07-10T11:25:45.871Z,26.73
2017-07-10T11:28:13.279Z,26.50
2017-07-10T11:30:40.690Z,31.77
2017-07-10T11:33:08.168Z,28.23
2017-07-10T11:35:35.583Z,28.77
2017-07-10T11:38:03.040Z,27.50
2017-07-10T11:40:30.728Z,28.53
2017-07-10T11:42:58.143Z,31.90
2017-07-10T11:45:25.556Z,32.50
2017-07-10T11:47:53.302Z,31.50
2017-07-10T11:50:20.720Z,31.33
2017-07-10T11:52:48.131Z,28.40
2017-07-10T11:55:15.602Z,32.67
2017-07-10T11:57:43.024Z,31.67
2017-07-10T12:00:10.441Z,28.90
2017-07-10T12:02:37.915Z,27.53
2017-07-10T12:05:05.335Z,28.20
2017-07-10T12:07:32.748Z,29.33
2017-07-10T12:10:00.217Z,25.30
2017-07-10T12:12:27.630Z,26.57
2017-07-10T12:14:55.044Z,26.00
2017-07-10T12:17:22.804Z,24.63
2017-07-10T12:19:50.223Z,24.97
2017-07-10T12:22:17.625Z,27.43
2017-07-10T12:24:45.111Z,23.10
2017-07-10T12:27:12.522Z,22.97
2017-07-10T12:29:39.936Z,20.27
2017-07-10T12:32:07.402Z,16.50
2017-07-10T12:34:34.813Z,15.03
2017-07-10T12:37:02.226Z,16.90
2017-07-10T12:39:29.653Z,19.10
2017-07-10T12:41:57.071Z,18.67
2017-07-10T12:44:24.530Z,17.13
2017-07-10T12:46:52.035Z,20.50
2017-07-10T12:49:19.442Z,17.30
2017-07-10T12:51:46.858Z,17.80
2017-07-10T12:54:14.310Z,18.10
2017-07-10T12:56:41.721Z,19.17
2017-07-10T12:59:09.805Z,18.20
2017-07-10T13:01:37.238Z,19.63
2017-07-10T13:04:04.660Z,18.93
2017-07-10T13:06:32.084Z,18.70
2017-07-10T13:08:59.506Z,18.83
2017-07-10T13:11:26.931Z,19.33
2017-07-10T13:13:54.337Z,17.30
2017-07-10T13:16:21.763Z,16.93
2017-07-10T13:18:49.187Z,14.60
2017-07-10T13:21:16.599Z,15.90
2017-07-10T13:23:44.030Z,16.40
2017-07-10T13:26:11.443Z,17.03
2017-07-10T13:28:38.855Z,16.40
2017-07-10T13:31:06.294Z,17.23
2017-07-10T13:33:33.711Z,17.20
2017-07-10T13:36:01.150Z,15.70
2017-07-10T13:38:28.582Z,16.57
2017-07-10T13:40:55.999Z,15.50
2017-07-10T13:43:23.402Z,17.50
2017-07-10T13:45:50.834Z,17.27
2017-07-10T13:48:18.255Z,15.57
2017-07-10T13:50:45.671Z,15.77
2017-07-10T13:53:13.110Z,15.33
2017-07-10T13:55:40.527Z,15.27
2017-07-10T13:58:07.944Z,14.50
2017-07-10T14:00:35.375Z,15.37
2017-07-10T14:03:02.789Z,13.80
2017-07-10T14:05:30.206Z,14.73
2017-07-10T14:07:57.644Z,15.67
2017-07-10T14:10:25.065Z,15.90
2017-07-10T14:12:52.489Z,14.03
2017-07-10T14:15:19.924Z,14.00
2017-07-10T14:17:47.343Z,14.57
2017-07-10T14:20:14.757Z,13.90
2017-07-10T14:22:42.242Z,13.83
2017-07-10T14:25:10.374Z,13.57
2017-07-10T14:27:37.788Z,14.07
2017-07-10T14:30:05.223Z,12.70
2017-07-10T14:32:32.630Z,12.90
2017-07-10T14:35:00.042Z,12.70
2017-07-10T14:37:27.486Z,12.87
2017-07-10T14:39:54.908Z,12.90
2017-07-10T14:42:22.319Z,12.93
2017-07-10T14:44:49.759Z,11.93
2017-07-10T14:47:17.181Z,12.60
2017-07-10T14:49:44.592Z,11.33
2017-07-10T14:52:12.033Z,12.37
2017-07-10T14:54:39.450Z,13.53
2017-07-10T14:57:06.863Z,13.13
2017-07-10T14:59:34.301Z,13.53
2017-07-10T15:02:01.711Z,14.00
2017-07-10T15:04:29.119Z,13.03
2017-07-10T15:06:56.740Z,13.80
2017-07-10T15:09:24.147Z,13.70
2017-07-10T15:11:51.559Z,13.70
2017-07-10T15:14:18.987Z,13.47
2017-07-10T15:16:46.403Z,13.90
2017-07-10T15:19:13.811Z,14.20
2017-07-10T15:21:41.247Z,14.90
2017-07-10T15:24:08.667Z,14.47
2017-07-10T15:26:36.082Z,15.00
2017-07-10T15:29:03.515Z,16.67
2017-07-10T15:31:30.925Z,17.97
2017-07-10T15:33:58.342Z,17.20
2017-07-10T15:36:25.774Z,18.83
2017-07-10T15:38:53.187Z,19.17
2017-07-10T15:41:20.607Z,18.10
2017-07-10T15:43:48.039Z,18.53
2017-07-10T15:46:15.455Z,18.77
2017-07-10T15:48:42.867Z,18.87
2017-07-10T15:51:10.297Z,19.67
2017-07-10T15:53:37.708Z,16.73
2017-07-10T15:56:05.122Z,18.00
2017-07-10T15:58:32.551Z,16.80
2017-07-10T16:00:59.962Z,23.50
2017-07-10T16:03:27.374Z,17.53
2017-07-10T16:05:54.810Z,17.53
2017-07-10T16:08:22.231Z,17.37
2017-07-10T16:10:49.643Z,17.20
2017-07-10T16:13:17.088Z,17.20
2017-07-10T16:15:44.502Z,16.70
2017-07-10T16:18:11.916Z,17.73
2017-07-10T16:20:39.345Z,15.30
2017-07-10T16:23:06.762Z,16.93
2017-07-10T16:25:34.178Z,17.33
2017-07-10T16:28:01.614Z,17.90
2017-07-10T16:30:29.033Z,17.73
2017-07-10T16:32:56.458Z,17.30
2017-07-10T16:35:23.887Z,18.23
2017-07-10T16:37:51.298Z,17.30
2017-07-10T16:40:18.711Z,17.50
2017-07-10T16:42:46.149Z,16.57
2017-07-10T16:45:13.564Z,18.63
2017-07-10T16:47:40.977Z,16.13
2017-07-10T16:50:08.413Z,17.90
2017-07-10T16:52:35.824Z,16.67
2017-07-10T16:55:03.239Z,16.20
2017-07-10T16:57:30.668Z,17.30
2017-07-10T16:59:58.080Z,16.37
2017-07-10T17:02:25.495Z,16.87
2017-07-10T17:04:53.290Z,15.53
2017-07-10T17:07:20.709Z,16.40
2017-07-10T17:09:48.126Z,15.53
2017-07-10T17:12:15.567Z,15.20
2017-07-10T17:14:42.991Z,14.53
2017-07-10T17:17:10.431Z,13.60
2017-07-10T17:19:37.864Z,14.03
2017-07-10T17:22:05.278Z,13.47
2017-07-10T17:24:32.687Z,13.40
2017-07-10T17:27:00.122Z,12.67
2017-07-10T17:29:27.525Z,11.70
2017-07-10T17:31:55.007Z,11.70
2017-07-10T17:34:22.750Z,12.97
2017-07-10T17:36:50.168Z,11.97
2017-07-10T17:39:17.596Z,12.17
2017-07-10T17:41:45.030Z,12.43
2017-07-10T17:44:13.147Z,11.57
2017-07-10T17:46:41.174Z,11.27
2017-07-10T17:49:09.255Z,12.53
2017-07-10T17:51:38.919Z,11.50
2017-07-10T17:54:07.218Z,11.30
2017-07-10T17:56:34.647Z,12.20
2017-07-10T17:59:02.063Z,11.80
2017-07-10T18:01:29.470Z,11.00
2017-07-10T18:03:56.908Z,10.97
2017-07-10T18:06:24.319Z,11.60
2017-07-10T18:08:51.732Z,11.00
2017-07-10T18:11:19.168Z,11.70
2017-07-10T18:13:46.618Z,12.30
2017-07-10T18:16:14.028Z,10.73
2017-07-10T18:18:41.458Z,9.90
2017-07-10T18:21:10.055Z,11.00
2017-07-10T18:23:37.467Z,11.53
2017-07-10T18:26:04.899Z,10.00
2017-07-10T18:28:32.311Z,10.20
2017-07-10T18:30:59.718Z,10.30
2017-07-10T18:33:27.150Z,10.90
2017-07-10T18:35:54.570Z,10.50
2017-07-10T18:38:21.985Z,11.30
2017-07-10T18:40:49.436Z,9.90
2017-07-10T18:43:16.838Z,10.60
2017-07-10T18:45:44.474Z,9.90
2017-07-10T18:48:11.982Z,10.10
2017-07-10T18:50:39.389Z,9.70
2017-07-10T18:53:08.014Z,10.23
2017-07-10T18:55:35.434Z,9.93
2017-07-10T18:58:02.847Z,10.03
2017-07-10T19:00:30.246Z,9.73
2017-07-10T19:02:57.682Z,9.83
2017-07-10T19:05:26.024Z,10.90
2017-07-10T19:07:53.433Z,9.20
2017-07-10T19:10:20.924Z,9.73
2017-07-10T19:12:48.350Z,9.80
2017-07-10T19:15:15.867Z,9.77
2017-07-10T19:17:43.301Z,9.80
2017-07-10T19:20:10.719Z,10.27
2017-07-10T19:22:38.164Z,9.40
2017-07-10T19:25:05.591Z,9.47
2017-07-10T19:27:32.999Z,9.67
2017-07-10T19:30:00.410Z,10.43
2017-07-10T19:32:27.831Z,9.73
2017-07-10T19:34:55.256Z,10.80
2017-07-10T19:37:22.687Z,9.50
2017-07-10T19:39:50.107Z,9.70
2017-07-10T19:42:17.541Z,9.97
2017-07-10T19:44:44.951Z,8.83
2017-07-10T19:47:12.384Z,9.37
2017-07-10T19:49:39.811Z,9.67
2017-07-10T19:52:07.234Z,8.90
2017-07-10T19:54:34.646Z,9.83
2017-07-10T19:57:02.118Z,10.00
2017-07-10T19:59:29.538Z,9.70
2017-07-10T20:01:56.967Z,10.37
2017-07-10T20:04:24.371Z,9.97
2017-07-10T20:06:51.823Z,10.67
2017-07-10T20:09:19.264Z,9.97
2017-07-10T20:11:46.676Z,9.70
2017-07-10T20:14:14.078Z,9.50
2017-07-10T20:16:41.526Z,9.70
2017-07-10T20:19:08.933Z,9.73
2017-07-10T20:21:36.330Z,9.33
2017-07-10T20:24:03.774Z,9.83
2017-07-10T20:26:31.186Z,9.73
2017-07-10T20:28:58.588Z,9.23
2017-07-10T20:31:26.034Z,9.60
2017-07-10T20:33:53.447Z,9.83
2017-07-10T20:36:20.854Z,9.27
2017-07-10T20:38:48.281Z,10.10
2017-07-10T20:41:15.691Z,9.30
2017-07-10T20:43:43.135Z,10.37
2017-07-10T20:46:10.566Z,9.80
2017-07-10T20:48:37.985Z,10.70
2017-07-10T20:51:05.395Z,9.83
2017-07-10T20:53:32.851Z,10.17
2017-07-10T20:56:00.269Z,10.40
2017-07-10T20:58:27.673Z,10.00
2017-07-10T21:00:55.103Z,9.50
2017-07-10T21:03:22.509Z,10.43
2017-07-10T21:05:49.927Z,10.20
2017-07-10T21:08:17.353Z,10.30
2017-07-10T21:10:44.778Z,9.83
2017-07-10T21:13:12.182Z,9.70
2017-07-10T21:15:39.614Z,10.47
2017-07-10T21:18:07.035Z,9.80
2017-07-10T21:20:34.446Z,10.10
2017-07-10T21:23:01.889Z,10.30
2017-07-10T21:25:29.326Z,10.73
2017-07-10T21:27:56.742Z,10.20
2017-07-10T21:30:24.166Z,10.00
2017-07-10T21:32:51.583Z,10.40
2017-07-10T21:35:19.023Z,10.30
2017-07-10T21:37:46.455Z,10.10
2017-07-10T21:40:13.919Z,9.80
2017-07-10T21:42:41.351Z,10.20
2017-07-10T21:45:08.839Z,10.10
2017-07-10T21:47:36.259Z,10.70
2017-07-10T21:50:03.679Z,10.03
2017-07-10T21:52:31.120Z,11.10
2017-07-10T21:54:58.539Z,10.97
2017-07-10T21:57:25.948Z,10.20
2017-07-10T21:59:53.390Z,10.70
2017-07-10T22:02:20.815Z,11.07
2017-07-10T22:04:48.233Z,10.90
2017-07-10T22:07:15.676Z,10.30
2017-07-10T22:09:43.091Z,10.17
2017-07-10T22:12:10.538Z,10.73
2017-07-10T22:14:37.967Z,10.20
2017-07-10T22:17:05.380Z,9.73
2017-07-10T22:19:32.787Z,10.83
2017-07-10T22:22:00.241Z,10.80
2017-07-10T22:24:27.642Z,9.73
2017-07-10T22:26:55.059Z,10.33
2017-07-10T22:29:22.504Z,9.60
2017-07-10T22:31:49.927Z,9.90
2017-07-10T22:34:17.335Z,10.33
2017-07-10T22:36:44.761Z,10.00
2017-07-10T22:39:12.175Z,10.30
2017-07-10T22:41:39.620Z,10.97
2017-07-10T22:44:07.057Z,10.07
2017-07-10T22:46:34.483Z,9.83
2017-07-10T22:49:01.886Z,10.33
2017-07-10T22:51:29.327Z,10.20
2017-07-10T22:53:56.738Z,10.57
2017-07-10T22:56:24.191Z,10.37
2017-07-10T22:58:51.618Z,11.17
2017-07-10T23:01:19.028Z,9.60
2017-07-10T23:03:46.443Z,10.43
2017-07-10T23:06:13.887Z,10.87
2017-07-10T23:08:41.302Z,11.03
2017-07-10T23:11:08.719Z,10.87
2017-07-10T23:13:36.176Z,10.53
2017-07-10T23:16:03.581Z,10.40
2017-07-10T23:18:30.989Z,10.73
2017-07-10T23:20:58.433Z,11.13
2017-07-10T23:23:25.837Z,10.70
2017-07-10T23:25:53.259Z,10.90
2017-07-10T23:28:20.691Z,10.67
2017-07-10T23:30:48.112Z,11.57
2017-07-10T23:33:15.519Z,11.07
2017-07-10T23:35:42.952Z,11.60
2017-07-10T23:38:10.362Z,10.40
2017-07-10T23:40:37.791Z,10.70
2017-07-10T23:43:05.231Z,11.00
2017-07-10T23:45:32.649Z,11.40
2017-07-10T23:48:00.118Z,11.20
2017-07-10T23:50:27.550Z,10.40
2017-07-10T23:52:54.967Z,11.50
2017-07-10T23:55:22.378Z,10.67
2017-07-10T23:57:49.808Z,11.43
